createdAt,value
2017-04-14T00:00:09.272Z,98.69
2017-04-14T00:01:08.932Z,98.5
2017-04-14T00:02:09.223Z,98.79
2017-04-14T00:03:08.892Z,98.79
2017-04-14T00:04:09.174Z,98.83
2017-04-14T00:05:09.152Z,98.69
2017-04-14T00:06:09.132Z,98.32
2017-04-14T00:07:08.820Z,98.32
2017-04-14T00:08:09.104Z,98.13
2017-04-14T00:09:08.769Z,98.6
2017-04-14T00:10:08.742Z,97.84
2017-04-14T00:11:09.028Z,97.93
2017-04-14T00:12:08.702Z,97.74
2017-04-14T00:13:08.983Z,97.74
2017-04-14T00:14:08.654Z,97.65
2017-04-14T00:15:08.932Z,97.46
2017-04-14T00:16:08.909Z,97.65
2017-04-14T00:17:08.590Z,97.46
2017-04-14T00:18:08.558Z,97.46
2017-04-14T00:19:08.852Z,97.65
2017-04-14T00:20:08.831Z,97.55
2017-04-14T00:21:08.499Z,97.93
2017-04-14T00:22:08.791Z,98.22
2017-04-14T00:23:08.757Z,98.22
2017-04-14T00:24:08.742Z,98.41
2017-04-14T00:25:08.721Z,98.83
2017-04-14T00:26:08.700Z,98.65
2017-04-14T00:27:08.676Z,98.83
2017-04-14T00:28:08.353Z,99.12
2017-04-14T00:29:08.324Z,99.02
2017-04-14T00:30:08.612Z,98.93
2017-04-14T00:31:08.582Z,99.5
2017-04-14T00:32:08.560Z,99.69
2017-04-14T00:33:08.538Z,99.88
2017-04-14T00:34:08.512Z,99.99
2017-04-14T00:35:08.504Z,99.41
2017-04-14T00:36:08.161Z,99.5
2017-04-14T00:37:08.463Z,99.02
2017-04-14T00:38:08.430Z,98.55
2017-04-14T00:39:08.402Z,98.65
2017-04-14T00:40:08.084Z,98.98
2017-04-14T00:41:08.383Z,98.32
2017-04-14T00:42:08.039Z,98.22
2017-04-14T00:43:08.324Z,98.22
2017-04-14T00:44:08.298Z,98.41
2017-04-14T00:45:08.279Z,98.32
2017-04-14T00:46:07.943Z,98.74
2017-04-14T00:47:08.234Z,98.83
2017-04-14T00:48:08.211Z,98.74
2017-04-14T00:49:07.926Z,98.55
2017-04-14T00:50:08.166Z,98.83
2017-04-14T00:51:08.144Z,98.83
2017-04-14T00:52:08.121Z,98.83
2017-04-14T00:53:07.854Z,98.74
2017-04-14T00:54:08.080Z,98.93
2017-04-14T00:55:08.054Z,98.65
2017-04-14T00:56:07.732Z,99.79
2017-04-14T00:57:07.705Z,99.69
2017-04-14T00:58:07.685Z,99.69
2017-04-14T00:59:07.671Z,99.99
2017-04-14T01:00:07.637Z,99.99
2017-04-14T01:01:07.922Z,99.6
2017-04-14T01:02:07.905Z,99.79
2017-04-14T01:03:07.641Z,99.6
2017-04-14T01:04:07.552Z,99.5
2017-04-14T01:05:07.832Z,99.5
2017-04-14T01:06:07.833Z,99.6
2017-04-14T01:07:07.495Z,99.02
2017-04-14T01:08:07.468Z,99.31
2017-04-14T01:09:07.548Z,99.22
2017-04-14T01:10:07.422Z,99.02
2017-04-14T01:11:07.401Z,99.31
2017-04-14T01:12:07.373Z,99.31
2017-04-14T01:13:07.653Z,99.31
2017-04-14T01:14:07.643Z,99.5
2017-04-14T01:15:07.613Z,99.02
2017-04-14T01:16:07.590Z,99.6
2017-04-14T01:17:07.582Z,99.79
2017-04-14T01:18:07.550Z,99.79
2017-04-14T01:19:07.214Z,99.6
2017-04-14T01:20:07.502Z,99.5
2017-04-14T01:21:07.171Z,99.41
2017-04-14T01:22:07.463Z,99.31
2017-04-14T01:23:07.438Z,99.79
2017-04-14T01:24:07.107Z,99.5
2017-04-14T01:25:07.394Z,99.99
2017-04-14T01:26:07.383Z,99.99
2017-04-14T01:27:07.354Z,99.99
2017-04-14T01:28:07.325Z,99.99
2017-04-14T01:29:07.307Z,99.99
2017-04-14T01:30:07.295Z,99.99
2017-04-14T01:31:07.261Z,99.99
2017-04-14T01:32:07.234Z,99.99
2017-04-14T01:33:06.907Z,99.99
2017-04-14T01:34:07.192Z,99.99
2017-04-14T01:35:07.177Z,99.99
2017-04-14T01:36:07.150Z,99.99
2017-04-14T01:37:07.119Z,99.99
2017-04-14T01:38:06.790Z,99.99
2017-04-14T01:39:07.076Z,99.99
2017-04-14T01:40:07.100Z,99.99
2017-04-14T01:41:07.091Z,99.99
2017-04-14T01:42:07.014Z,99.99
2017-04-14T01:43:06.997Z,99.99
2017-04-14T01:44:06.973Z,99.99
2017-04-14T01:45:06.633Z,99.99
2017-04-14T01:46:06.921Z,99.99
2017-04-14T01:47:06.895Z,99.99
2017-04-14T01:48:06.892Z,99.99
2017-04-14T01:49:06.860Z,99.99
2017-04-14T01:50:06.544Z,99.99
2017-04-14T01:51:06.510Z,99.99
2017-04-14T01:52:06.780Z,99.99
2017-04-14T01:53:06.763Z,99.99
2017-04-14T01:54:06.429Z,99.99
2017-04-14T01:55:06.509Z,99.99
2017-04-14T01:56:06.383Z,99.99
2017-04-14T01:57:06.381Z,99.99
2017-04-14T01:58:06.640Z,99.99
2017-04-14T01:59:06.620Z,99.99
2017-04-14T02:00:06.597Z,99.99
2017-04-14T02:01:06.590Z,99.99
2017-04-14T02:02:06.264Z,99.99
2017-04-14T02:03:06.223Z,99.99
2017-04-14T02:04:06.516Z,99.99
2017-04-14T02:05:06.193Z,99.99
2017-04-14T02:06:06.513Z,99.99
2017-04-14T02:07:06.141Z,99.99
2017-04-14T02:08:06.420Z,99.99
2017-04-14T02:09:06.412Z,99.99
2017-04-14T02:10:06.381Z,99.99
2017-04-14T02:11:06.353Z,99.99
2017-04-14T02:12:06.389Z,99.99
2017-04-14T02:13:06.350Z,99.99
2017-04-14T02:14:05.999Z,99.99
2017-04-14T02:15:06.463Z,99.99
2017-04-14T02:16:06.241Z,99.99
2017-04-14T02:17:06.222Z,99.99
2017-04-14T02:18:05.942Z,99.99
2017-04-14T02:19:05.865Z,99.99
2017-04-14T02:20:06.243Z,99.99
2017-04-14T02:21:05.813Z,99.99
2017-04-14T02:22:05.817Z,99.99
2017-04-14T02:23:06.192Z,99.99
2017-04-14T02:24:06.162Z,99.99
2017-04-14T02:25:06.133Z,99.99
2017-04-14T02:26:06.063Z,99.99
2017-04-14T02:27:05.682Z,99.99
2017-04-14T02:28:06.033Z,99.99
2017-04-14T02:29:05.945Z,99.99
2017-04-14T02:30:05.721Z,99.99
2017-04-14T02:31:05.586Z,99.99
2017-04-14T02:32:05.571Z,99.99
2017-04-14T02:33:05.550Z,99.99
2017-04-14T02:34:05.571Z,99.99
2017-04-14T02:35:05.806Z,99.99
2017-04-14T02:36:05.925Z,99.99
2017-04-14T02:37:05.761Z,99.99
2017-04-14T02:38:05.450Z,99.99
2017-04-14T02:39:05.709Z,99.99
2017-04-14T02:40:05.798Z,99.99
2017-04-14T02:41:05.670Z,99.99
2017-04-14T02:42:05.681Z,99.99
2017-04-14T02:43:05.681Z,99.99
2017-04-14T02:44:05.597Z,99.99
2017-04-14T02:45:05.590Z,99.99
2017-04-14T02:46:05.548Z,99.99
2017-04-14T02:47:05.662Z,99.99
2017-04-14T02:48:05.202Z,99.99
2017-04-14T02:49:05.172Z,99.99
2017-04-14T02:50:05.551Z,99.99
2017-04-14T02:51:05.440Z,99.99
2017-04-14T02:52:05.103Z,99.99
2017-04-14T02:53:05.402Z,99.99
2017-04-14T02:54:05.062Z,99.99
2017-04-14T02:55:05.044Z,99.99
2017-04-14T02:56:05.324Z,99.99
2017-04-14T02:57:05.303Z,99.99
2017-04-14T02:58:05.274Z,99.99
2017-04-14T02:59:05.252Z,99.99
2017-04-14T03:00:05.330Z,99.99
2017-04-14T03:01:04.913Z,99.99
2017-04-14T03:02:05.193Z,99.99
2017-04-14T03:03:05.161Z,99.99
2017-04-14T03:04:05.144Z,99.99
2017-04-14T03:05:05.116Z,99.99
2017-04-14T03:06:05.085Z,99.99
2017-04-14T03:07:05.075Z,99.99
2017-04-14T03:08:05.043Z,99.99
2017-04-14T03:09:04.713Z,99.99
2017-04-14T03:10:04.998Z,99.99
2017-04-14T03:11:04.984Z,99.99
2017-04-14T03:12:04.953Z,99.99
2017-04-14T03:13:04.934Z,99.99
2017-04-14T03:14:04.913Z,99.99
2017-04-14T03:15:04.884Z,99.99
2017-04-14T03:16:04.863Z,99.99
2017-04-14T03:17:04.843Z,99.99
2017-04-14T03:18:04.813Z,99.99
2017-04-14T03:19:04.483Z,99.99
2017-04-14T03:20:04.464Z,99.99
2017-04-14T03:21:04.433Z,99.99
2017-04-14T03:22:04.722Z,99.99
2017-04-14T03:23:04.394Z,99.99
2017-04-14T03:24:04.671Z,99.99
2017-04-14T03:25:04.650Z,99.99
2017-04-14T03:26:04.672Z,99.99
2017-04-14T03:27:04.602Z,99.99
2017-04-14T03:28:04.284Z,99.99
2017-04-14T03:29:04.562Z,99.99
2017-04-14T03:30:04.538Z,99.99
2017-04-14T03:31:04.513Z,99.99
2017-04-14T03:32:04.495Z,99.99
2017-04-14T03:33:04.164Z,99.99
2017-04-14T03:34:04.443Z,99.99
2017-04-14T03:35:04.412Z,99.99
2017-04-14T03:36:04.402Z,99.99
2017-04-14T03:37:04.376Z,99.99
2017-04-14T03:38:04.352Z,99.99
2017-04-14T03:39:04.332Z,99.99
2017-04-14T03:40:04.002Z,99.99
2017-04-14T03:41:04.282Z,99.99
2017-04-14T03:42:04.282Z,99.99
2017-04-14T03:43:03.943Z,99.99
2017-04-14T03:44:04.214Z,99.99
2017-04-14T03:45:03.893Z,99.99
2017-04-14T03:46:03.853Z,99.99
2017-04-14T03:47:04.145Z,99.99
2017-04-14T03:48:04.122Z,99.99
2017-04-14T03:49:04.094Z,99.99
2017-04-14T03:50:04.084Z,99.99
2017-04-14T03:51:03.751Z,99.99
2017-04-14T03:52:04.026Z,99.99
2017-04-14T03:53:03.694Z,99.99
2017-04-14T03:54:03.986Z,99.99
2017-04-14T03:55:03.652Z,99.99
2017-04-14T03:56:03.935Z,99.99
2017-04-14T03:57:03.600Z,99.99
2017-04-14T03:58:03.894Z,99.99
2017-04-14T03:59:03.873Z,99.99
2017-04-14T04:00:03.903Z,99.99
2017-04-14T04:01:03.832Z,99.99
2017-04-14T04:02:03.902Z,99.99
2017-04-14T04:03:03.772Z,99.99
2017-04-14T04:04:03.754Z,99.99
2017-04-14T04:05:03.421Z,99.99
2017-04-14T04:06:03.402Z,99.99
2017-04-14T04:07:03.673Z,99.99
2017-04-14T04:08:03.752Z,99.99
2017-04-14T04:09:03.325Z,99.99
2017-04-14T04:10:03.729Z,99.99
2017-04-14T04:11:03.582Z,99.99
2017-04-14T04:12:03.251Z,99.99
2017-04-14T04:13:03.232Z,99.99
2017-04-14T04:14:03.213Z,99.99
2017-04-14T04:15:03.181Z,99.99
2017-04-14T04:16:03.531Z,99.99
2017-04-14T04:17:03.452Z,99.99
2017-04-14T04:18:03.423Z,99.99
2017-04-14T04:19:03.093Z,99.99
2017-04-14T04:20:03.063Z,99.99
2017-04-14T04:21:03.045Z,99.99
2017-04-14T04:22:03.332Z,99.99
2017-04-14T04:23:03.302Z,99.99
2017-04-14T04:24:03.286Z,99.99
2017-04-14T04:25:03.261Z,99.99
2017-04-14T04:26:03.233Z,99.99
2017-04-14T04:27:03.216Z,99.99
2017-04-14T04:28:03.202Z,99.99
2017-04-14T04:29:03.163Z,99.99
2017-04-14T04:30:03.144Z,99.99
2017-04-14T04:31:03.114Z,99.99
2017-04-14T04:32:03.092Z,99.99
2017-04-14T04:33:03.066Z,99.99
2017-04-14T04:34:02.753Z,99.99
2017-04-14T04:35:02.713Z,99.99
2017-04-14T04:36:03.004Z,99.99
2017-04-14T04:37:02.972Z,99.99
2017-04-14T04:38:02.965Z,99.99
2017-04-14T04:39:02.624Z,99.99
2017-04-14T04:40:02.613Z,99.99
2017-04-14T04:41:02.885Z,99.99
2017-04-14T04:42:02.874Z,99.99
2017-04-14T04:43:02.524Z,99.99
2017-04-14T04:44:02.809Z,99.99
2017-04-14T04:45:02.782Z,99.99
2017-04-14T04:46:02.457Z,99.99
2017-04-14T04:47:02.732Z,99.99
2017-04-14T04:48:02.726Z,99.99
2017-04-14T04:49:02.442Z,99.99
2017-04-14T04:50:02.684Z,99.99
2017-04-14T04:51:02.454Z,99.99
2017-04-14T04:52:02.622Z,99.99
2017-04-14T04:53:02.606Z,99.99
2017-04-14T04:54:02.272Z,99.99
2017-04-14T04:55:02.562Z,99.99
2017-04-14T04:56:02.235Z,99.99
2017-04-14T04:57:02.513Z,99.99
2017-04-14T04:58:02.490Z,99.99
2017-04-14T04:59:02.473Z,99.99
2017-04-14T05:00:02.443Z,99.99
2017-04-14T05:01:02.417Z,99.99
2017-04-14T05:02:02.395Z,99.99
2017-04-14T05:03:02.064Z,99.99
2017-04-14T05:04:02.336Z,99.99
2017-04-14T05:05:02.322Z,99.99
2017-04-14T05:06:01.994Z,99.99
2017-04-14T05:07:02.275Z,99.99
2017-04-14T05:08:01.953Z,99.99
2017-04-14T05:09:02.240Z,99.99
2017-04-14T05:10:02.205Z,99.99
2017-04-14T05:11:02.203Z,99.99
2017-04-14T05:12:02.153Z,99.99
2017-04-14T05:13:01.832Z,99.99
2017-04-14T05:14:01.808Z,99.99
2017-04-14T05:15:02.083Z,99.99
2017-04-14T05:16:01.753Z,99.99
2017-04-14T05:17:02.043Z,99.99
2017-04-14T05:18:02.016Z,99.99
2017-04-14T05:19:01.693Z,99.99
2017-04-14T05:20:01.666Z,99.99
2017-04-14T05:21:01.944Z,99.99
2017-04-14T05:22:01.615Z,99.99
2017-04-14T05:23:01.608Z,99.99
2017-04-14T05:24:01.872Z,99.99
2017-04-14T05:25:01.855Z,99.99
2017-04-14T05:26:01.823Z,99.99
2017-04-14T05:27:01.498Z,99.99
2017-04-14T05:28:01.476Z,99.99
2017-04-14T05:29:01.465Z,99.99
2017-04-14T05:30:01.792Z,99.99
2017-04-14T05:31:01.403Z,99.99
2017-04-14T05:32:01.685Z,99.99
2017-04-14T05:33:01.682Z,99.99
2017-04-14T05:34:01.641Z,99.99
2017-04-14T05:35:01.614Z,99.99
2017-04-14T05:36:01.602Z,99.99
2017-04-14T05:37:01.273Z,99.99
2017-04-14T05:38:01.564Z,99.99
2017-04-14T05:39:01.539Z,99.99
2017-04-14T05:40:01.503Z,99.99
2017-04-14T05:41:01.483Z,99.99
2017-04-14T05:42:01.473Z,99.99
2017-04-14T05:43:01.127Z,99.99
2017-04-14T05:44:01.415Z,99.99
2017-04-14T05:45:01.392Z,99.99
2017-04-14T05:46:01.359Z,99.99
2017-04-14T05:47:01.337Z,99.99
2017-04-14T05:48:01.357Z,99.99
2017-04-14T05:49:00.985Z,99.99
2017-04-14T05:50:01.272Z,99.99
2017-04-14T05:51:01.243Z,99.99
2017-04-14T05:52:00.914Z,99.99
2017-04-14T05:53:00.895Z,99.99
2017-04-14T05:54:00.874Z,99.99
2017-04-14T05:55:01.209Z,99.99
2017-04-14T05:56:00.823Z,99.99
2017-04-14T05:57:01.126Z,99.99
2017-04-14T05:58:01.084Z,99.99
2017-04-14T05:59:00.755Z,99.99
2017-04-14T06:00:01.044Z,99.99
2017-04-14T06:01:01.015Z,99.99
2017-04-14T06:02:00.687Z,99.99
2017-04-14T06:03:00.982Z,99.99
2017-04-14T06:04:00.954Z,99.99
2017-04-14T06:05:00.615Z,99.99
2017-04-14T06:06:00.902Z,99.99
2017-04-14T06:07:00.573Z,99.99
2017-04-14T06:08:00.897Z,99.99
2017-04-14T06:09:00.523Z,99.99
2017-04-14T06:10:00.504Z,99.99
2017-04-14T06:11:00.482Z,99.99
2017-04-14T06:12:00.813Z,99.99
2017-04-14T06:13:00.743Z,99.99
2017-04-14T06:14:00.753Z,99.99
2017-04-14T06:15:00.445Z,99.99
2017-04-14T06:16:00.728Z,99.99
2017-04-14T06:17:00.653Z,99.99
2017-04-14T06:18:00.740Z,99.99
2017-04-14T06:19:00.616Z,99.99
2017-04-14T06:20:00.683Z,99.99
2017-04-14T06:21:00.572Z,99.99
2017-04-14T06:22:00.547Z,99.99
2017-04-14T06:23:00.523Z,99.99
2017-04-14T06:24:00.303Z,99.99
2017-04-14T06:25:00.483Z,99.99
2017-04-14T06:26:00.565Z,99.99
2017-04-14T06:27:00.125Z,99.99
2017-04-14T06:28:00.203Z,99.99
2017-04-14T06:29:00.395Z,99.99
2017-04-14T06:30:00.364Z,99.99
2017-04-14T06:31:00.032Z,99.99
2017-04-14T06:32:00.327Z,99.99
2017-04-14T06:33:00.307Z,99.99
2017-04-14T06:34:00.326Z,99.99
2017-04-14T06:35:00.270Z,99.99
2017-04-14T06:36:00.249Z,99.99
2017-04-14T06:37:00.223Z,99.99
2017-04-14T06:38:00.183Z,99.99
2017-04-14T06:39:00.168Z,99.99
2017-04-14T06:39:59.848Z,99.99
2017-04-14T06:41:00.128Z,99.99
2017-04-14T06:42:00.138Z,99.99
2017-04-14T06:43:00.080Z,99.99
2017-04-14T06:43:59.756Z,99.99
2017-04-14T06:44:59.741Z,99.99
2017-04-14T06:45:59.793Z,99.99
2017-04-14T06:46:59.683Z,99.99
2017-04-14T06:47:59.983Z,99.99
2017-04-14T06:48:59.952Z,99.99
2017-04-14T06:49:59.923Z,99.99
2017-04-14T06:50:59.903Z,99.99
2017-04-14T06:51:59.572Z,99.99
2017-04-14T06:52:59.872Z,99.99
2017-04-14T06:53:59.846Z,99.99
2017-04-14T06:54:59.827Z,99.99
2017-04-14T06:55:59.801Z,99.99
2017-04-14T06:56:59.844Z,99.99
2017-04-14T06:57:59.773Z,99.99
2017-04-14T06:58:59.441Z,99.99
2017-04-14T06:59:59.754Z,99.41
2017-04-14T07:00:59.414Z,97.85
2017-04-14T07:01:59.702Z,96.37
2017-04-14T07:02:59.689Z,94.51
2017-04-14T07:03:59.362Z,92.64
2017-04-14T07:04:59.675Z,91.25
2017-04-14T07:05:59.735Z,91.06
2017-04-14T07:06:59.707Z,90.68
2017-04-14T07:07:59.314Z,90.3
2017-04-14T07:08:59.603Z,89.2
2017-04-14T07:09:59.572Z,88
2017-04-14T07:10:59.731Z,86.41
2017-04-14T07:11:59.559Z,86.22
2017-04-14T07:12:59.532Z,87.71
2017-04-14T07:13:59.521Z,90.16
2017-04-14T07:14:59.511Z,91.74
2017-04-14T07:15:59.482Z,93.26
2017-04-14T07:16:59.169Z,96.08
2017-04-14T07:17:59.453Z,98.03
2017-04-14T07:18:59.441Z,99.18
2017-04-14T07:19:59.422Z,99.99
2017-04-14T07:20:59.402Z,99.99
2017-04-14T07:21:59.384Z,99.99
2017-04-14T07:22:59.361Z,99.99
2017-04-14T07:23:59.357Z,99.99
2017-04-14T07:24:59.333Z,99.99
2017-04-14T07:25:59.324Z,99.99
2017-04-14T07:26:59.293Z,99.99
2017-04-14T07:27:59.299Z,99.99
2017-04-14T07:28:59.254Z,99.99
2017-04-14T07:29:59.239Z,99.99
2017-04-14T07:30:59.228Z,99.99
2017-04-14T07:31:59.196Z,99.99
2017-04-14T07:32:59.200Z,99.99
2017-04-14T07:33:59.163Z,99.99
2017-04-14T07:34:59.136Z,99.99
2017-04-14T07:35:59.224Z,99.99
2017-04-14T07:36:59.113Z,99.99
2017-04-14T07:37:59.092Z,99.99
2017-04-14T07:38:58.762Z,99.99
2017-04-14T07:39:59.053Z,99.99
2017-04-14T07:40:59.123Z,99.99
2017-04-14T07:41:58.696Z,99.99
2017-04-14T07:42:58.983Z,99.99
2017-04-14T07:43:58.691Z,99.99
2017-04-14T07:44:58.643Z,99.99
2017-04-14T07:45:59.082Z,99.99
2017-04-14T07:46:58.902Z,99.99
2017-04-14T07:47:58.674Z,99.99
2017-04-14T07:48:58.554Z,99.99
2017-04-14T07:49:58.847Z,99.99
2017-04-14T07:50:58.514Z,99.99
2017-04-14T07:51:58.867Z,99.99
2017-04-14T07:52:58.783Z,99.99
2017-04-14T07:53:58.751Z,99.99
2017-04-14T07:54:58.437Z,99.99
2017-04-14T07:55:58.762Z,99.99
2017-04-14T07:56:58.711Z,99.99
2017-04-14T07:57:58.754Z,99.99
2017-04-14T07:58:58.345Z,99.99
2017-04-14T07:59:58.638Z,99.99
2017-04-14T08:00:58.643Z,99.99
2017-04-14T08:01:58.605Z,99.99
2017-04-14T08:02:58.600Z,99.99
2017-04-14T08:03:58.626Z,99.99
2017-04-14T08:04:58.557Z,99.99
2017-04-14T08:05:58.662Z,99.99
2017-04-14T08:06:58.494Z,99.99
2017-04-14T08:07:58.216Z,99.99
2017-04-14T08:08:58.455Z,99.99
2017-04-14T08:09:58.183Z,99.99
2017-04-14T08:10:58.090Z,99.99
2017-04-14T08:11:58.163Z,99.99
2017-04-14T08:12:58.058Z,99.99
2017-04-14T08:13:58.443Z,99.99
2017-04-14T08:14:58.025Z,99.99
2017-04-14T08:15:58.145Z,99.99
2017-04-14T08:16:58.290Z,99.99
2017-04-14T08:17:58.374Z,99.99
2017-04-14T08:18:58.238Z,99.99
2017-04-14T08:19:58.222Z,99.99
2017-04-14T08:20:58.342Z,99.99
2017-04-14T08:21:58.320Z,99.99
2017-04-14T08:22:58.247Z,99.99
2017-04-14T08:23:58.135Z,99.99
2017-04-14T08:24:58.130Z,99.99
2017-04-14T08:25:58.103Z,99.99
2017-04-14T08:26:57.776Z,99.99
2017-04-14T08:27:58.062Z,99.99
2017-04-14T08:28:58.035Z,99.99
2017-04-14T08:29:57.878Z,99.99
2017-04-14T08:30:58.182Z,99.99
2017-04-14T08:31:57.975Z,99.99
2017-04-14T08:32:57.945Z,99.99
2017-04-14T08:33:57.932Z,99.99
2017-04-14T08:34:57.915Z,99.99
2017-04-14T08:35:57.984Z,99.99
2017-04-14T08:36:57.873Z,99.99
2017-04-14T08:37:57.842Z,99.99
2017-04-14T08:38:57.988Z,99.99
2017-04-14T08:39:57.827Z,99.99
2017-04-14T08:40:57.828Z,99.99
2017-04-14T08:41:57.755Z,99.99
2017-04-14T08:42:57.736Z,99.99
2017-04-14T08:43:57.715Z,99.99
2017-04-14T08:44:57.947Z,99.99
2017-04-14T08:45:57.674Z,99.99
2017-04-14T08:46:57.344Z,99.99
2017-04-14T08:47:57.646Z,99.99
2017-04-14T08:48:57.615Z,99.99
2017-04-14T08:49:57.595Z,99.99
2017-04-14T08:50:57.574Z,99.99
2017-04-14T08:51:57.568Z,99.99
2017-04-14T08:52:57.655Z,99.99
2017-04-14T08:53:57.523Z,99.99
2017-04-14T08:54:57.503Z,99.99
2017-04-14T08:55:57.162Z,99.99
2017-04-14T08:56:57.153Z,99.99
2017-04-14T08:57:57.424Z,99.99
2017-04-14T08:58:57.403Z,99.99
2017-04-14T08:59:57.382Z,99.99
2017-04-14T09:00:57.375Z,99.99
2017-04-14T09:01:57.343Z,99.99
2017-04-14T09:02:57.332Z,99.99
2017-04-14T09:03:57.310Z,99.99
2017-04-14T09:04:57.285Z,99.99
2017-04-14T09:05:56.957Z,99.99
2017-04-14T09:06:57.256Z,99.99
2017-04-14T09:07:57.039Z,99.99
2017-04-14T09:08:56.901Z,99.99
2017-04-14T09:09:57.175Z,99.99
2017-04-14T09:10:57.160Z,99.99
2017-04-14T09:11:57.147Z,99.99
2017-04-14T09:12:57.124Z,99.99
2017-04-14T09:13:56.848Z,99.99
2017-04-14T09:14:57.085Z,99.99
2017-04-14T09:15:57.162Z,99.99
2017-04-14T09:16:57.042Z,99.99
2017-04-14T09:17:56.717Z,99.99
2017-04-14T09:18:56.725Z,99.99
2017-04-14T09:19:56.984Z,99.99
2017-04-14T09:20:56.653Z,99.99
2017-04-14T09:21:56.953Z,99.99
2017-04-14T09:22:56.912Z,99.99
2017-04-14T09:23:56.894Z,99.99
2017-04-14T09:24:56.876Z,99.99
2017-04-14T09:25:56.872Z,99.99
2017-04-14T09:26:56.842Z,99.99
2017-04-14T09:27:56.813Z,99.99
2017-04-14T09:28:56.804Z,99.99
2017-04-14T09:29:56.471Z,99.99
2017-04-14T09:30:56.769Z,99.99
2017-04-14T09:31:56.738Z,99.99
2017-04-14T09:32:56.715Z,99.99
2017-04-14T09:33:56.713Z,99.99
2017-04-14T09:34:56.367Z,99.99
2017-04-14T09:35:56.906Z,99.99
2017-04-14T09:36:56.634Z,99.99
2017-04-14T09:37:56.402Z,99.99
2017-04-14T09:38:56.602Z,99.99
2017-04-14T09:39:56.322Z,99.99
2017-04-14T09:40:56.553Z,99.99
2017-04-14T09:41:56.524Z,99.99
2017-04-14T09:42:56.513Z,99.99
2017-04-14T09:43:56.242Z,99.99
2017-04-14T09:44:56.472Z,99.99
2017-04-14T09:45:56.450Z,99.99
2017-04-14T09:46:56.435Z,99.99
2017-04-14T09:47:56.097Z,99.99
2017-04-14T09:48:56.385Z,99.99
2017-04-14T09:49:56.372Z,99.99
2017-04-14T09:50:56.474Z,99.99
2017-04-14T09:51:56.122Z,99.99
2017-04-14T09:52:56.014Z,99.99
2017-04-14T09:53:56.282Z,99.99
2017-04-14T09:54:55.954Z,99.99
2017-04-14T09:55:56.243Z,99.99
2017-04-14T09:56:56.222Z,99.99
2017-04-14T09:57:56.203Z,99.99
2017-04-14T09:58:56.191Z,99.99
2017-04-14T09:59:55.868Z,99.99
2017-04-14T10:00:56.138Z,99.99
2017-04-14T10:01:56.132Z,99.99
2017-04-14T10:02:56.110Z,99.99
2017-04-14T10:03:55.802Z,99.99
2017-04-14T10:04:55.753Z,99.99
2017-04-14T10:05:55.844Z,99.99
2017-04-14T10:06:56.028Z,99.99
2017-04-14T10:07:56.005Z,99.99
2017-04-14T10:08:55.670Z,99.99
2017-04-14T10:09:55.653Z,99.99
2017-04-14T10:10:55.936Z,99.99
2017-04-14T10:11:55.913Z,99.99
2017-04-14T10:12:55.904Z,99.99
2017-04-14T10:13:55.878Z,99.99
2017-04-14T10:14:55.549Z,99.99
2017-04-14T10:15:55.834Z,99.99
2017-04-14T10:16:55.815Z,99.99
2017-04-14T10:17:55.501Z,99.99
2017-04-14T10:18:55.776Z,99.99
2017-04-14T10:19:55.755Z,99.99
2017-04-14T10:20:55.741Z,99.99
2017-04-14T10:21:55.716Z,99.99
2017-04-14T10:22:55.702Z,99.99
2017-04-14T10:23:55.693Z,99.99
2017-04-14T10:24:55.665Z,99.99
2017-04-14T10:25:55.645Z,99.99
2017-04-14T10:26:55.652Z,99.99
2017-04-14T10:27:55.597Z,99.99
2017-04-14T10:28:55.577Z,99.99
2017-04-14T10:29:55.306Z,99.99
2017-04-14T10:30:55.225Z,99.99
2017-04-14T10:31:55.517Z,99.99
2017-04-14T10:32:55.510Z,99.99
2017-04-14T10:33:55.173Z,99.99
2017-04-14T10:34:55.455Z,99.99
2017-04-14T10:35:55.137Z,99.99
2017-04-14T10:36:55.415Z,99.99
2017-04-14T10:37:55.398Z,99.99
2017-04-14T10:38:55.382Z,99.99
2017-04-14T10:39:55.345Z,99.99
2017-04-14T10:40:55.025Z,99.99
2017-04-14T10:41:55.318Z,99.99
2017-04-14T10:42:55.286Z,99.99
2017-04-14T10:43:55.277Z,99.99
2017-04-14T10:44:55.269Z,99.99
2017-04-14T10:45:54.918Z,99.99
2017-04-14T10:46:55.206Z,99.99
2017-04-14T10:47:55.194Z,99.99
2017-04-14T10:48:55.184Z,99.99
2017-04-14T10:49:55.140Z,99.99
2017-04-14T10:50:55.134Z,99.99
2017-04-14T10:51:54.791Z,99.99
2017-04-14T10:52:55.088Z,99.99
2017-04-14T10:53:55.074Z,99.99
2017-04-14T10:54:55.056Z,99.99
2017-04-14T10:55:55.030Z,99.99
2017-04-14T10:56:55.009Z,99.99
2017-04-14T10:57:54.985Z,99.99
2017-04-14T10:58:54.986Z,99.99
2017-04-14T10:59:54.949Z,99.99
2017-04-14T11:00:54.934Z,99.99
2017-04-14T11:01:54.904Z,99.99
2017-04-14T11:02:54.896Z,99.99
2017-04-14T11:03:54.866Z,99.99
2017-04-14T11:04:54.844Z,99.99
2017-04-14T11:05:54.523Z,99.99
2017-04-14T11:06:54.797Z,99.99
2017-04-14T11:07:54.610Z,99.99
2017-04-14T11:08:54.459Z,99.99
2017-04-14T11:09:54.745Z,99.99
2017-04-14T11:10:54.727Z,99.99
2017-04-14T11:11:54.705Z,99.99
2017-04-14T11:12:54.380Z,99.99
2017-04-14T11:13:54.677Z,99.99
2017-04-14T11:14:54.651Z,99.99
2017-04-14T11:15:54.642Z,99.99
2017-04-14T11:16:54.611Z,99.99
2017-04-14T11:17:54.599Z,99.99
2017-04-14T11:18:54.276Z,99.99
2017-04-14T11:19:54.546Z,99.99
2017-04-14T11:20:54.522Z,99.99
2017-04-14T11:21:54.508Z,99.99
2017-04-14T11:22:54.187Z,99.99
2017-04-14T11:23:54.465Z,99.99
2017-04-14T11:24:54.451Z,99.99
2017-04-14T11:25:54.145Z,99.99
2017-04-14T11:26:54.424Z,99.99
2017-04-14T11:27:54.394Z,99.99
2017-04-14T11:28:54.371Z,99.99
2017-04-14T11:29:54.067Z,99.99
2017-04-14T11:30:54.328Z,99.99
2017-04-14T11:31:54.315Z,99.99
2017-04-14T11:32:53.990Z,99.99
2017-04-14T11:33:54.283Z,99.99
2017-04-14T11:34:54.265Z,99.99
2017-04-14T11:35:54.244Z,99.99
2017-04-14T11:36:54.210Z,99.99
2017-04-14T11:37:53.895Z,99.99
2017-04-14T11:38:54.179Z,99.99
2017-04-14T11:39:54.160Z,99.99
2017-04-14T11:40:54.136Z,99.99
2017-04-14T11:41:54.136Z,99.99
2017-04-14T11:42:54.101Z,99.99
2017-04-14T11:43:54.097Z,99.99
2017-04-14T11:44:54.055Z,99.99
2017-04-14T11:45:54.042Z,99.99
2017-04-14T11:46:54.020Z,99.99
2017-04-14T11:47:54.009Z,99.99
2017-04-14T11:48:53.675Z,99.99
2017-04-14T11:49:53.966Z,99.99
2017-04-14T11:50:53.946Z,99.99
2017-04-14T11:51:53.618Z,99.99
2017-04-14T11:52:53.910Z,99.99
2017-04-14T11:53:53.894Z,99.99
2017-04-14T11:54:53.550Z,99.99
2017-04-14T11:55:53.542Z,99.99
2017-04-14T11:56:53.851Z,99.99
2017-04-14T11:57:53.506Z,99.99
2017-04-14T11:58:53.786Z,99.99
2017-04-14T11:59:53.774Z,99.99
2017-04-14T12:00:53.745Z,99.99
2017-04-14T12:01:53.742Z,99.99
2017-04-14T12:02:53.708Z,99.99
2017-04-14T12:03:53.396Z,99.85
2017-04-14T12:04:53.675Z,99.61
2017-04-14T12:05:53.346Z,99.57
2017-04-14T12:06:53.326Z,99.85
2017-04-14T12:07:53.620Z,99.85
2017-04-14T12:08:53.593Z,99.57
2017-04-14T12:09:53.584Z,99.57
2017-04-14T12:10:53.567Z,99.85
2017-04-14T12:11:53.535Z,99.47
2017-04-14T12:12:53.523Z,99.18
2017-04-14T12:13:53.500Z,99.18
2017-04-14T12:14:53.486Z,99.99
2017-04-14T12:15:53.153Z,99.99
2017-04-14T12:16:53.438Z,99.99
2017-04-14T12:17:53.425Z,99.99
2017-04-14T12:18:53.106Z,98.99
2017-04-14T12:19:53.380Z,98.52
2017-04-14T12:20:53.062Z,97.61
2017-04-14T12:21:53.045Z,97.99
2017-04-14T12:22:53.329Z,97.32
2017-04-14T12:23:53.356Z,96.66
2017-04-14T12:24:53.286Z,96.46
2017-04-14T12:25:53.280Z,96.89
2017-04-14T12:26:53.255Z,97.23
2017-04-14T12:27:53.236Z,96.94
2017-04-14T12:28:53.223Z,96.37
2017-04-14T12:29:53.208Z,96.66
2017-04-14T12:30:53.182Z,96.66
2017-04-14T12:31:53.159Z,96.8
2017-04-14T12:32:53.152Z,96.89
2017-04-14T12:33:53.127Z,96.8
2017-04-14T12:34:53.111Z,96.8
2017-04-14T12:35:53.093Z,96.61
2017-04-14T12:36:53.066Z,96.61
2017-04-14T12:37:53.047Z,95.79
2017-04-14T12:38:53.047Z,95.61
2017-04-14T12:39:53.316Z,95.22
2017-04-14T12:40:53.286Z,95.41
2017-04-14T12:41:52.977Z,95.41
2017-04-14T12:42:52.954Z,95.03
2017-04-14T12:43:52.935Z,95.03
2017-04-14T12:44:52.925Z,95.12
2017-04-14T12:45:52.906Z,95.65
2017-04-14T12:46:52.887Z,95.46
2017-04-14T12:47:52.870Z,95.61
2017-04-14T12:48:52.856Z,95.03
2017-04-14T12:49:52.812Z,95.03
2017-04-14T12:50:52.801Z,95.22
2017-04-14T12:51:52.785Z,94.74
2017-04-14T12:52:52.764Z,94.46